Time;durP1;ratioP1;P1;durP2;ratioP2;P2;SDS_P1;SDS_P2;PMS_P1;PMS_P2;Temp;Humidity;BMP_temperature;BMP_pressure;BME280_temperature;BME280_humidity;BME280_pressure;Samples;Min_cycle;Max_cycle;Signal;HPM_P1;HPM_P2
2024/01/22 00:02:24;;;;;;;19.70;18.48;;;;;;;;;;5051774;28;20208;-77
2024/01/22 00:04:51;;;;;;;19.77;18.53;;;;;;;;;;5051614;28;20261;-77
2024/01/22 00:07:18;;;;;;;18.42;17.42;;;;;;;;;;5051122;28;20446;-77
2024/01/22 00:09:46;;;;;;;18.73;17.63;;;;;;;;;;5051631;28;20571;-77
2024/01/22 00:12:13;;;;;;;18.60;17.55;;;;;;;;;;5051591;28;20914;-77
2024/01/22 00:14:40;;;;;;;18.13;17.05;;;;;;;;;;5051129;28;20257;-77
2024/01/22 00:17:07;;;;;;;18.60;17.40;;;;;;;;;;5051046;28;20216;-76
2024/01/22 00:19:34;;;;;;;18.15;17.15;;;;;;;;;;5051186;28;20232;-76
2024/01/22 00:22:01;;;;;;;19.92;18.77;;;;;;;;;;5051483;28;20264;-77
2024/01/22 00:24:28;;;;;;;18.47;17.37;;;;;;;;;;5051196;28;20201;-77
2024/01/22 00:26:56;;;;;;;19.02;17.83;;;;;;;;;;5049888;28;20828;-76
2024/01/22 00:29:23;;;;;;;18.43;17.57;;;;;;;;;;5051044;28;20309;-77
2024/01/22 00:31:50;;;;;;;19.00;17.80;;;;;;;;;;5050676;28;20446;-76
2024/01/22 00:34:17;;;;;;;18.80;17.80;;;;;;;;;;5051212;28;20226;-77
2024/01/22 00:36:44;;;;;;;17.65;16.85;;;;;;;;;;5050128;28;20455;-77
2024/01/22 00:39:11;;;;;;;19.92;18.83;;;;;;;;;;5050951;28;20274;-77
2024/01/22 00:41:38;;;;;;;17.52;16.73;;;;;;;;;;5050828;28;20196;-77
2024/01/22 00:44:07;;;;;;;18.67;17.58;;;;;;;;;;5050764;28;20242;-77
2024/01/22 00:46:34;;;;;;;18.45;17.15;;;;;;;;;;5050270;28;20212;-77
2024/01/22 00:49:01;;;;;;;17.77;16.98;;;;;;;;;;5050174;28;20769;-77
2024/01/22 00:51:28;;;;;;;19.00;17.80;;;;;;;;;;5050394;28;20613;-77
2024/01/22 00:53:54;;;;;;;18.20;17.30;;;;;;;;;;5049923;28;20449;-77
2024/01/22 00:56:23;;;;;;;17.90;17.00;;;;;;;;;;5050044;28;20267;-77
2024/01/22 00:58:50;;;;;;;17.90;17.00;;;;;;;;;;5050410;28;20560;-77
2024/01/22 01:01:18;;;;;;;19.40;17.85;;;;;;;;;;5050420;28;20203;-77
2024/01/22 01:03:45;;;;;;;17.90;17.10;;;;;;;;;;5050558;28;20208;-77
2024/01/22 01:06:12;;;;;;;18.95;18.00;;;;;;;;;;5050094;28;20277;-77
2024/01/22 01:08:39;;;;;;;18.02;17.13;;;;;;;;;;5049355;28;20232;-77
2024/01/22 01:11:06;;;;;;;18.60;17.63;;;;;;;;;;5057183;28;20748;-76
2024/01/22 01:13:33;;;;;;;17.90;16.90;;;;;;;;;;5070201;28;20539;-77
2024/01/22 01:16:01;;;;;;;18.90;17.70;;;;;;;;;;5070668;28;20515;-77
2024/01/22 01:18:29;;;;;;;18.25;17.25;;;;;;;;;;5074409;28;20296;-77
2024/01/22 01:20:56;;;;;;;18.30;17.30;;;;;;;;;;5074078;28;20289;-77
2024/01/22 01:23:23;;;;;;;18.10;17.10;;;;;;;;;;5074569;28;20203;-77
2024/01/22 01:25:50;;;;;;;17.60;16.60;;;;;;;;;;5074293;28;20446;-77
2024/01/22 01:28:17;;;;;;;17.87;16.83;;;;;;;;;;5072360;28;20208;-77
2024/01/22 01:30:44;;;;;;;17.37;16.57;;;;;;;;;;5053662;28;20552;-77
2024/01/22 01:33:11;;;;;;;17.85;17.02;;;;;;;;;;5060186;28;20424;-77
2024/01/22 01:35:39;;;;;;;17.87;17.07;;;;;;;;;;5069815;28;20273;-76
2024/01/22 01:38:06;;;;;;;17.45;16.60;;;;;;;;;;5054159;28;20549;-77
2024/01/22 01:40:33;;;;;;;18.23;16.90;;;;;;;;;;5053553;28;20228;-77
2024/01/22 01:43:00;;;;;;;17.40;16.60;;;;;;;;;;5053656;28;20421;-77
2024/01/22 01:45:27;;;;;;;17.70;16.67;;;;;;;;;;5054007;28;20212;-77
2024/01/22 01:47:54;;;;;;;16.97;16.13;;;;;;;;;;5053150;28;20433;-77
2024/01/22 01:50:21;;;;;;;17.73;16.90;;;;;;;;;;5056317;28;20487;-76
2024/01/22 01:52:50;;;;;;;17.30;16.40;;;;;;;;;;5068934;28;20927;-77
2024/01/22 01:55:18;;;;;;;17.17;16.47;;;;;;;;;;5053850;28;20762;-77
2024/01/22 01:57:45;;;;;;;16.43;15.73;;;;;;;;;;5053050;28;20450;-77
2024/01/22 02:00:13;;;;;;;16.80;16.00;;;;;;;;;;5053273;28;20499;-77
2024/01/22 02:02:40;;;;;;;17.50;16.60;;;;;;;;;;5053015;28;20879;-77
2024/01/22 02:05:07;;;;;;;17.60;16.70;;;;;;;;;;5053221;28;20443;-76
2024/01/22 02:07:35;;;;;;;18.07;16.97;;;;;;;;;;5052576;28;20917;-77
2024/01/22 02:10:03;;;;;;;17.77;16.77;;;;;;;;;;5052504;28;20564;-77
2024/01/22 02:12:30;;;;;;;17.87;16.97;;;;;;;;;;5052970;28;20451;-76
2024/01/22 02:14:57;;;;;;;17.33;16.23;;;;;;;;;;5053169;28;20484;-77
2024/01/22 02:17:24;;;;;;;17.70;16.90;;;;;;;;;;5052495;28;20437;-77
2024/01/22 02:19:51;;;;;;;18.03;17.03;;;;;;;;;;5052992;28;20516;-77
2024/01/22 02:22:18;;;;;;;17.85;16.83;;;;;;;;;;5053309;28;20500;-77
2024/01/22 02:24:46;;;;;;;17.87;16.80;;;;;;;;;;5052153;28;20265;-77
2024/01/22 02:27:13;;;;;;;17.23;16.33;;;;;;;;;;5051886;28;20451;-77
2024/01/22 02:29:41;;;;;;;17.13;16.43;;;;;;;;;;5052632;28;20945;-77
2024/01/22 02:32:08;;;;;;;18.43;17.33;;;;;;;;;;5053339;28;20429;-77
2024/01/22 02:34:35;;;;;;;18.37;17.17;;;;;;;;;;5052465;28;20545;-76
2024/01/22 02:37:02;;;;;;;19.77;18.67;;;;;;;;;;5063138;28;20957;-77
2024/01/22 02:39:29;;;;;;;17.27;16.47;;;;;;;;;;5072647;28;20461;-77
2024/01/22 02:45:01;;;;;;;17.30;16.50;;;;;;;;;;5069929;28;20461;-77
2024/01/22 02:47:28;;;;;;;17.53;16.23;;;;;;;;;;5072264;28;20420;-77
2024/01/22 02:49:55;;;;;;;17.53;16.63;;;;;;;;;;5058449;28;20469;-77
2024/01/22 02:52:22;;;;;;;17.50;16.70;;;;;;;;;;5052780;28;20421;-77
2024/01/22 02:54:49;;;;;;;17.63;16.73;;;;;;;;;;5052563;28;20454;-76
2024/01/22 02:57:16;;;;;;;18.37;17.27;;;;;;;;;;5052191;28;20200;-78
2024/01/22 02:59:43;;;;;;;18.13;17.33;;;;;;;;;;5052025;28;20998;-77
2024/01/22 03:02:12;;;;;;;16.60;15.90;;;;;;;;;;5052613;28;20425;-77
2024/01/22 03:04:39;;;;;;;16.50;15.80;;;;;;;;;;5052638;28;20455;-76
2024/01/22 03:07:06;;;;;;;17.43;16.53;;;;;;;;;;5051958;28;20421;-76
2024/01/22 03:09:33;;;;;;;16.57;15.87;;;;;;;;;;5051275;28;20994;-77
2024/01/22 03:12:00;;;;;;;17.57;16.77;;;;;;;;;;5052359;28;20909;-77
2024/01/22 03:14:27;;;;;;;17.20;16.50;;;;;;;;;;5051938;28;21014;-77
2024/01/22 03:16:54;;;;;;;17.97;17.10;;;;;;;;;;5051325;28;20499;-77
2024/01/22 03:19:22;;;;;;;17.20;16.50;;;;;;;;;;5051691;28;21051;-77
2024/01/22 03:21:49;;;;;;;17.77;16.70;;;;;;;;;;5051896;28;20443;-77
2024/01/22 03:24:16;;;;;;;17.13;16.23;;;;;;;;;;5051877;28;20421;-76
2024/01/22 03:26:43;;;;;;;18.20;17.20;;;;;;;;;;5050868;28;20439;-77
2024/01/22 03:29:10;;;;;;;17.10;16.30;;;;;;;;;;5051618;28;20520;-76
2024/01/22 03:31:37;;;;;;;18.10;17.20;;;;;;;;;;5051619;28;20530;-77
2024/01/22 03:34:04;;;;;;;17.73;16.83;;;;;;;;;;5051977;28;20428;-77
2024/01/22 03:36:33;;;;;;;17.30;16.50;;;;;;;;;;5051259;28;20789;-77
2024/01/22 03:39:00;;;;;;;17.50;16.70;;;;;;;;;;5050805;28;20445;-77
2024/01/22 03:41:27;;;;;;;17.13;16.43;;;;;;;;;;5051532;28;20992;-77
2024/01/22 03:43:54;;;;;;;16.70;16.00;;;;;;;;;;5051412;28;21005;-77
2024/01/22 03:46:21;;;;;;;17.00;16.30;;;;;;;;;;5050809;28;20846;-77
2024/01/22 03:48:47;;;;;;;18.20;17.40;;;;;;;;;;5051365;28;20873;-77
2024/01/22 03:51:15;;;;;;;17.07;16.37;;;;;;;;;;5050366;28;20599;-77
2024/01/22 03:53:43;;;;;;;17.77;16.97;;;;;;;;;;5051264;28;20433;-77
2024/01/22 03:56:10;;;;;;;18.00;17.00;;;;;;;;;;5050898;28;20455;-77
2024/01/22 03:58:37;;;;;;;31.40;28.07;;;;;;;;;;5051338;28;20449;-77
2024/01/22 04:01:04;;;;;;;19.03;18.03;;;;;;;;;;5052137;28;20451;-77
2024/01/22 04:03:32;;;;;;;22.43;20.93;;;;;;;;;;5051762;28;20442;-77
2024/01/22 04:05:59;;;;;;;25.10;23.00;;;;;;;;;;5051044;28;20877;-77
2024/01/22 04:08:26;;;;;;;18.47;17.47;;;;;;;;;;5050822;28;20797;-77
2024/01/22 04:10:54;;;;;;;18.03;17.13;;;;;;;;;;5050817;28;20499;-77
2024/01/22 04:13:21;;;;;;;17.77;16.77;;;;;;;;;;5051178;28;20446;-77
2024/01/22 04:15:50;;;;;;;19.50;18.10;;;;;;;;;;5050259;28;20439;-77
2024/01/22 04:18:17;;;;;;;17.37;16.37;;;;;;;;;;5050095;28;20409;-77
2024/01/22 04:20:44;;;;;;;17.70;16.90;;;;;;;;;;5051089;28;20497;-77
2024/01/22 04:23:11;;;;;;;17.67;16.87;;;;;;;;;;5050806;28;20622;-77
2024/01/22 04:25:38;;;;;;;16.70;16.00;;;;;;;;;;5049834;28;20446;-76
2024/01/22 04:28:07;;;;;;;16.70;16.00;;;;;;;;;;5054224;28;20450;-76
2024/01/22 04:30:34;;;;;;;18.53;17.53;;;;;;;;;;5051657;28;20887;-77
2024/01/22 04:33:01;;;;;;;19.57;18.53;;;;;;;;;;5050505;28;20446;-76
2024/01/22 04:35:28;;;;;;;23.07;21.17;;;;;;;;;;5050636;28;20425;-77
2024/01/22 04:37:55;;;;;;;18.60;17.63;;;;;;;;;;5049749;28;20828;-77
2024/01/22 04:40:22;;;;;;;17.80;16.90;;;;;;;;;;5050482;28;20441;-77
2024/01/22 04:42:49;;;;;;;17.67;16.87;;;;;;;;;;5051860;28;20543;-77
2024/01/22 04:45:18;;;;;;;17.80;16.80;;;;;;;;;;5050520;28;20425;-77
2024/01/22 04:47:45;;;;;;;18.63;17.70;;;;;;;;;;5050049;28;20422;-77
2024/01/22 04:50:12;;;;;;;18.57;17.67;;;;;;;;;;5049809;28;20462;-77
2024/01/22 04:52:39;;;;;;;20.43;19.43;;;;;;;;;;5049879;28;20477;-77
2024/01/22 04:55:06;;;;;;;22.37;21.07;;;;;;;;;;5049974;28;21305;-76
2024/01/22 04:57:33;;;;;;;22.00;20.90;;;;;;;;;;5050056;28;20504;-77
2024/01/22 05:00:00;;;;;;;22.23;21.13;;;;;;;;;;5050408;28;20458;-77
2024/01/22 05:02:28;;;;;;;23.27;21.87;;;;;;;;;;5050441;28;20447;-77
2024/01/22 05:04:57;;;;;;;23.00;21.70;;;;;;;;;;5050676;28;20471;-77
2024/01/22 05:07:24;;;;;;;23.90;22.80;;;;;;;;;;5050486;28;20449;-78
2024/01/22 05:09:53;;;;;;;23.70;22.70;;;;;;;;;;5050133;28;21202;-77
2024/01/22 05:12:20;;;;;;;26.53;25.33;;;;;;;;;;5050121;28;20490;-78
2024/01/22 05:14:47;;;;;;;26.60;25.40;;;;;;;;;;5052821;28;20459;-78
2024/01/22 05:17:14;;;;;;;30.10;28.70;;;;;;;;;;5062683;28;20459;-78
2024/01/22 05:19:42;;;;;;;28.37;27.17;;;;;;;;;;5049127;28;20506;-76
2024/01/22 05:22:10;;;;;;;29.53;28.23;;;;;;;;;;5049999;28;20438;-77
2024/01/22 05:24:37;;;;;;;31.60;30.10;;;;;;;;;;5059084;28;20530;-78
2024/01/22 05:27:05;;;;;;;31.43;30.03;;;;;;;;;;5069979;28;20540;-77
2024/01/22 05:29:32;;;;;;;30.43;29.13;;;;;;;;;;5069881;28;20497;-77
2024/01/22 05:31:59;;;;;;;32.70;31.10;;;;;;;;;;5070281;28;20477;-77
2024/01/22 05:34:26;;;;;;;31.90;30.47;;;;;;;;;;5070047;28;20416;-77
2024/01/22 05:36:55;;;;;;;30.20;28.90;;;;;;;;;;5059677;28;20524;-77
2024/01/22 05:39:22;;;;;;;30.20;28.90;;;;;;;;;;5049895;28;20484;-78
2024/01/22 05:41:49;;;;;;;31.37;29.97;;;;;;;;;;5049715;28;20432;-77
2024/01/22 05:44:16;;;;;;;28.85;27.55;;;;;;;;;;5055940;28;20464;-78
2024/01/22 05:46:43;;;;;;;27.70;26.40;;;;;;;;;;5070068;28;20211;-77
2024/01/22 05:49:11;;;;;;;28.20;26.60;;;;;;;;;;5065325;28;20228;-77
2024/01/22 05:51:37;;;;;;;29.23;27.73;;;;;;;;;;5049884;28;20531;-78
2024/01/22 05:54:06;;;;;;;25.40;24.30;;;;;;;;;;5049766;28;20425;-77
2024/01/22 05:56:33;;;;;;;25.77;24.57;;;;;;;;;;5062876;28;20494;-77
2024/01/22 05:59:00;;;;;;;26.20;25.10;;;;;;;;;;5063799;28;20474;-77
2024/01/22 06:01:29;;;;;;;25.63;24.50;;;;;;;;;;5049104;28;20433;-77
2024/01/22 06:03:56;;;;;;;26.37;25.27;;;;;;;;;;5054028;28;20432;-77
2024/01/22 06:06:23;;;;;;;26.60;25.40;;;;;;;;;;5069149;28;20437;-77
2024/01/22 06:08:51;;;;;;;23.67;22.77;;;;;;;;;;5053024;28;20521;-77
2024/01/22 06:11:20;;;;;;;23.73;22.73;;;;;;;;;;5053170;28;20448;-78
2024/01/22 06:13:47;;;;;;;24.33;23.33;;;;;;;;;;5053305;28;20442;-77
2024/01/22 06:16:14;;;;;;;24.77;23.67;;;;;;;;;;5052663;28;20470;-76
2024/01/22 06:18:41;;;;;;;24.13;23.13;;;;;;;;;;5052899;28;20788;-77
2024/01/22 06:21:09;;;;;;;25.17;23.97;;;;;;;;;;5053149;28;20429;-77
2024/01/22 06:23:36;;;;;;;25.30;24.20;;;;;;;;;;5052891;28;20451;-78
2024/01/22 06:26:03;;;;;;;24.23;23.23;;;;;;;;;;5053040;28;20417;-78
2024/01/22 06:28:32;;;;;;;23.13;22.23;;;;;;;;;;5052350;28;20445;-77
2024/01/22 06:30:59;;;;;;;24.80;23.80;;;;;;;;;;5052922;28;20482;-77
2024/01/22 06:33:26;;;;;;;23.90;22.90;;;;;;;;;;5053481;28;20446;-78
2024/01/22 06:35:53;;;;;;;23.93;22.93;;;;;;;;;;5053038;28;20425;-77
2024/01/22 06:38:20;;;;;;;22.80;21.90;;;;;;;;;;5051793;28;20459;-76
2024/01/22 06:40:47;;;;;;;24.27;23.27;;;;;;;;;;5053141;28;20489;-77
2024/01/22 06:43:15;;;;;;;24.17;23.13;;;;;;;;;;5052267;28;20515;-77
2024/01/22 06:45:43;;;;;;;23.00;22.00;;;;;;;;;;5052922;28;20448;-77
2024/01/22 06:48:11;;;;;;;22.30;21.40;;;;;;;;;;5051628;28;20458;-76
2024/01/22 06:50:39;;;;;;;23.03;22.13;;;;;;;;;;5051511;28;20494;-77
2024/01/22 06:53:06;;;;;;;21.20;20.30;;;;;;;;;;5052531;28;20518;-77
2024/01/22 06:55:33;;;;;;;21.03;20.23;;;;;;;;;;5052650;28;20508;-77
2024/01/22 06:58:00;;;;;;;21.00;20.20;;;;;;;;;;5052037;28;20421;-77
2024/01/22 07:00:27;;;;;;;21.07;20.17;;;;;;;;;;5051849;28;20461;-77
2024/01/22 07:02:57;;;;;;;20.67;19.87;;;;;;;;;;5072137;28;20454;-77
2024/01/22 07:05:26;;;;;;;20.53;19.73;;;;;;;;;;5072669;28;20454;-77
2024/01/22 07:07:53;;;;;;;19.60;18.80;;;;;;;;;;5071891;28;20908;-77
2024/01/22 07:10:21;;;;;;;19.03;18.33;;;;;;;;;;5071377;28;20456;-77
2024/01/22 07:12:48;;;;;;;19.43;18.63;;;;;;;;;;5051763;28;20528;-77
2024/01/22 07:15:15;;;;;;;20.00;19.20;;;;;;;;;;5050763;28;21264;-77
2024/01/22 07:17:42;;;;;;;18.73;17.90;;;;;;;;;;5051382;28;20859;-77
2024/01/22 07:20:13;;;;;;;18.80;18.10;;;;;;;;;;5066847;28;20452;-77
2024/01/22 07:22:41;;;;;;;18.67;17.97;;;;;;;;;;5071872;28;20408;-78
2024/01/22 07:25:08;;;;;;;18.97;18.20;;;;;;;;;;5071652;28;20456;-77
2024/01/22 07:27:38;;;;;;;17.77;17.07;;;;;;;;;;5052649;28;20975;-77
2024/01/22 07:30:08;;;;;;;17.97;17.27;;;;;;;;;;5050962;28;20970;-77
2024/01/22 07:32:36;;;;;;;18.27;17.47;;;;;;;;;;5051138;28;21046;-77
2024/01/22 07:35:06;;;;;;;17.10;16.40;;;;;;;;;;5051585;28;20429;-77
2024/01/22 07:37:35;;;;;;;17.80;17.10;;;;;;;;;;5050556;28;20972;-78
2024/01/22 07:40:04;;;;;;;18.70;18.00;;;;;;;;;;5051768;28;20485;-77
2024/01/22 07:42:31;;;;;;;18.93;18.23;;;;;;;;;;5070555;28;20479;-77
2024/01/22 07:44:58;;;;;;;18.63;17.93;;;;;;;;;;5069047;28;20480;-76
2024/01/22 07:47:25;;;;;;;20.00;19.27;;;;;;;;;;5052394;28;20455;-77
2024/01/22 07:49:52;;;;;;;20.27;19.40;;;;;;;;;;5051294;28;20482;-76
2024/01/22 07:52:19;;;;;;;19.33;18.63;;;;;;;;;;5050115;28;20494;-77
2024/01/22 07:54:47;;;;;;;21.57;20.67;;;;;;;;;;5050819;28;21155;-76
2024/01/22 07:57:14;;;;;;;20.10;19.30;;;;;;;;;;5067294;28;20749;-77
2024/01/22 07:59:41;;;;;;;21.83;20.93;;;;;;;;;;5070667;28;20448;-78
2024/01/22 08:02:08;;;;;;;23.40;22.40;;;;;;;;;;5070183;28;20441;-77
2024/01/22 08:04:35;;;;;;;23.47;22.47;;;;;;;;;;5071002;28;20856;-77
2024/01/22 08:07:03;;;;;;;24.37;23.37;;;;;;;;;;5070698;28;20486;-78
2024/01/22 08:09:31;;;;;;;25.57;24.37;;;;;;;;;;5071321;28;20534;-76
2024/01/22 08:11:59;;;;;;;25.07;23.97;;;;;;;;;;5071257;28;20993;-78
2024/01/22 08:14:26;;;;;;;27.23;26.03;;;;;;;;;;5070834;28;20470;-76
2024/01/22 08:16:53;;;;;;;28.20;27.00;;;;;;;;;;5070136;28;20450;-77
2024/01/22 08:19:20;;;;;;;31.83;30.43;;;;;;;;;;5070801;28;20440;-78
2024/01/22 08:21:47;;;;;;;35.53;33.93;;;;;;;;;;5071244;28;21194;-77
2024/01/22 08:24:14;;;;;;;34.83;33.23;;;;;;;;;;5070653;28;20581;-79
2024/01/22 08:26:42;;;;;;;36.73;34.83;;;;;;;;;;5070676;28;20762;-79
2024/01/22 08:29:10;;;;;;;37.43;35.73;;;;;;;;;;5070604;28;20475;-78
2024/01/22 08:31:37;;;;;;;37.23;35.50;;;;;;;;;;5071062;28;20505;-79
2024/01/22 08:34:04;;;;;;;35.23;33.63;;;;;;;;;;5071748;28;20499;-79
2024/01/22 08:36:31;;;;;;;35.80;34.20;;;;;;;;;;5071447;28;20503;-79
2024/01/22 08:38:58;;;;;;;34.83;33.03;;;;;;;;;;5055641;28;20470;-78
2024/01/22 08:41:27;;;;;;;36.47;34.77;;;;;;;;;;5052146;28;20425;-78
2024/01/22 08:43:54;;;;;;;44.80;42.60;;;;;;;;;;5052339;28;21240;-79
2024/01/22 08:46:22;;;;;;;36.30;34.60;;;;;;;;;;5050237;28;20727;-78
2024/01/22 08:48:49;;;;;;;35.53;33.77;;;;;;;;;;5052486;28;20453;-77
2024/01/22 08:51:17;;;;;;;35.30;33.60;;;;;;;;;;5053072;28;20463;-78
2024/01/22 08:53:44;;;;;;;35.07;33.37;;;;;;;;;;5052843;28;20914;-79
2024/01/22 08:56:10;;;;;;;36.93;35.20;;;;;;;;;;5051119;28;20846;-77
2024/01/22 08:58:37;;;;;;;35.77;34.13;;;;;;;;;;5049786;28;20547;-77
2024/01/22 09:01:05;;;;;;;35.43;33.73;;;;;;;;;;5050145;28;20504;-77
2024/01/22 09:03:33;;;;;;;43.90;41.83;;;;;;;;;;5050143;28;20478;-76
2024/01/22 09:06:00;;;;;;;39.13;37.23;;;;;;;;;;5061198;28;20420;-77
2024/01/22 09:08:28;;;;;;;37.73;36.00;;;;;;;;;;5069402;28;20972;-76
2024/01/22 09:10:55;;;;;;;38.80;37.00;;;;;;;;;;5066996;28;20486;-77
2024/01/22 09:13:22;;;;;;;37.43;35.53;;;;;;;;;;5050065;28;20469;-77
2024/01/22 09:15:49;;;;;;;38.03;36.30;;;;;;;;;;5049979;28;20989;-77
2024/01/22 09:18:16;;;;;;;35.50;33.50;;;;;;;;;;5050204;28;20434;-76
2024/01/22 09:20:44;;;;;;;29.90;28.50;;;;;;;;;;5050205;28;20454;-76
2024/01/22 09:23:11;;;;;;;29.03;27.73;;;;;;;;;;5050013;28;20479;-76
2024/01/22 09:25:40;;;;;;;27.57;26.37;;;;;;;;;;5056173;28;20482;-77
2024/01/22 09:28:08;;;;;;;25.97;24.67;;;;;;;;;;5052157;28;21231;-76
2024/01/22 09:30:35;;;;;;;24.77;23.67;;;;;;;;;;5066848;28;20556;-76
2024/01/22 09:33:04;;;;;;;23.97;22.97;;;;;;;;;;5055086;28;20465;-76
2024/01/22 09:35:31;;;;;;;24.30;23.30;;;;;;;;;;5048207;28;21284;-77
2024/01/22 09:38:01;;;;;;;25.67;24.47;;;;;;;;;;5069076;28;20933;-76
2024/01/22 09:40:28;;;;;;;25.07;23.97;;;;;;;;;;5071290;28;20444;-76
2024/01/22 09:42:58;;;;;;;25.50;24.40;;;;;;;;;;5053967;28;20447;-76
2024/01/22 09:45:28;;;;;;;24.93;23.83;;;;;;;;;;5054945;28;21091;-83
2024/01/22 09:47:55;;;;;;;26.20;25.10;;;;;;;;;;5061410;28;20472;-78
2024/01/22 09:50:22;;;;;;;25.13;24.03;;;;;;;;;;5059568;28;20859;-77
2024/01/22 09:52:51;;;;;;;24.60;23.50;;;;;;;;;;5055769;28;20488;-77
2024/01/22 09:55:20;;;;;;;24.60;23.40;;;;;;;;;;5070428;28;20442;-77
2024/01/22 09:57:48;;;;;;;23.53;22.53;;;;;;;;;;5064775;28;20447;-77
2024/01/22 10:00:16;;;;;;;22.90;21.90;;;;;;;;;;5059882;28;20479;-76
2024/01/22 10:02:44;;;;;;;24.53;23.03;;;;;;;;;;5059797;28;20451;-77
2024/01/22 10:05:11;;;;;;;24.33;23.23;;;;;;;;;;5054010;28;20436;-76
2024/01/22 10:07:38;;;;;;;22.27;21.27;;;;;;;;;;5052670;28;20447;-77
2024/01/22 10:10:05;;;;;;;24.67;23.50;;;;;;;;;;5054066;28;20478;-76
2024/01/22 10:12:54;;;;;;;25.87;24.63;;;;;;;;;;5058651;28;20887;-77
2024/01/22 10:15:21;;;;;;;26.57;25.37;;;;;;;;;;5064614;28;20797;-75
2024/01/22 10:17:48;;;;;;;27.40;25.67;;;;;;;;;;5060570;28;20458;-75
2024/01/22 10:20:16;;;;;;;27.10;25.50;;;;;;;;;;5059069;28;20504;-77
2024/01/22 10:22:43;;;;;;;26.40;25.20;;;;;;;;;;5053067;28;20980;-76
2024/01/22 10:25:10;;;;;;;24.73;23.40;;;;;;;;;;5052805;28;21225;-77
2024/01/22 10:27:38;;;;;;;25.93;24.63;;;;;;;;;;5052871;28;20512;-77
2024/01/22 10:30:10;;;;;;;25.80;23.90;;;;;;;;;;5055368;28;20495;-76
2024/01/22 10:32:37;;;;;;;24.00;22.80;;;;;;;;;;5059412;28;21144;-78
2024/01/22 10:35:04;;;;;;;26.13;24.93;;;;;;;;;;5059478;28;20456;-78
2024/01/22 10:37:31;;;;;;;22.00;21.00;;;;;;;;;;5065072;28;20511;-76
2024/01/22 10:40:03;;;;;;;22.97;21.97;;;;;;;;;;5067188;28;20473;-78
2024/01/22 10:42:30;;;;;;;22.60;21.30;;;;;;;;;;5063331;28;20478;-79
2024/01/22 10:44:58;;;;;;;22.00;21.00;;;;;;;;;;5069837;28;20495;-79
2024/01/22 10:47:25;;;;;;;22.07;21.17;;;;;;;;;;5071162;28;20494;-80
2024/01/22 10:49:53;;;;;;;20.80;19.90;;;;;;;;;;5056501;28;20498;-80
2024/01/22 10:52:21;;;;;;;19.67;18.87;;;;;;;;;;5061217;28;20901;-79
2024/01/22 10:54:48;;;;;;;21.83;20.50;;;;;;;;;;5062360;28;20412;-81
2024/01/22 10:57:16;;;;;;;21.20;19.90;;;;;;;;;;5061218;28;20454;-81
2024/01/22 10:59:48;;;;;;;21.53;20.37;;;;;;;;;;5062811;28;20955;-80
2024/01/22 11:02:22;;;;;;;21.63;20.63;;;;;;;;;;5067325;28;21026;-80
2024/01/22 11:04:51;;;;;;;21.10;19.87;;;;;;;;;;5054995;28;20910;-80
2024/01/22 11:07:20;;;;;;;20.80;19.30;;;;;;;;;;5054989;28;20500;-81
2024/01/22 11:09:49;;;;;;;21.10;20.00;;;;;;;;;;5053558;28;20449;-80
2024/01/22 11:12:20;;;;;;;20.57;19.57;;;;;;;;;;5055939;28;20466;-80
2024/01/22 11:14:47;;;;;;;19.50;18.50;;;;;;;;;;5065631;28;20449;-79
2024/01/22 11:17:15;;;;;;;20.17;19.20;;;;;;;;;;5071119;28;20440;-81
2024/01/22 11:19:43;;;;;;;22.70;21.40;;;;;;;;;;5063459;28;20445;-80
2024/01/22 11:22:16;;;;;;;22.00;20.90;;;;;;;;;;5061711;28;20449;-78
2024/01/22 11:24:43;;;;;;;20.20;19.10;;;;;;;;;;5066099;28;20507;-80
2024/01/22 11:27:10;;;;;;;18.77;17.97;;;;;;;;;;5061996;28;20424;-81
2024/01/22 11:29:37;;;;;;;20.13;18.97;;;;;;;;;;5072307;28;20482;-80
2024/01/22 11:32:23;;;;;;;19.07;18.27;;;;;;;;;;5071476;28;20447;-79
2024/01/22 11:34:52;;;;;;;19.20;18.37;;;;;;;;;;5060075;28;20447;-79
2024/01/22 11:37:34;;;;;;;19.77;18.40;;;;;;;;;;5052054;28;20450;-78
2024/01/22 11:40:01;;;;;;;19.70;18.80;;;;;;;;;;5052906;28;20425;-79
2024/01/22 11:42:29;;;;;;;19.30;18.40;;;;;;;;;;5054206;28;20451;-80
2024/01/22 11:44:58;;;;;;;18.97;18.07;;;;;;;;;;5054181;28;20417;-80
2024/01/22 11:47:26;;;;;;;19.10;17.93;;;;;;;;;;5054313;28;20492;-80
2024/01/22 11:50:02;;;;;;;19.67;17.97;;;;;;;;;;5053083;28;20546;-79
2024/01/22 11:52:29;;;;;;;18.80;17.90;;;;;;;;;;5059817;28;20409;-76
2024/01/22 11:54:57;;;;;;;18.63;17.53;;;;;;;;;;5063987;28;20428;-78
2024/01/22 11:57:25;;;;;;;18.97;17.93;;;;;;;;;;5060311;28;20815;-78
2024/01/22 11:59:59;;;;;;;19.37;18.03;;;;;;;;;;5058689;28;20452;-78
2024/01/22 12:02:26;;;;;;;17.83;17.03;;;;;;;;;;5065769;28;20836;-78
2024/01/22 12:05:01;;;;;;;19.20;18.23;;;;;;;;;;5064006;28;20450;-76
2024/01/22 12:07:34;;;;;;;19.37;18.47;;;;;;;;;;5065905;28;20866;-79
2024/01/22 12:10:01;;;;;;;19.60;18.80;;;;;;;;;;5058346;28;20428;-76
2024/01/22 12:12:28;;;;;;;21.80;20.40;;;;;;;;;;5062295;28;20413;-78
2024/01/22 12:14:56;;;;;;;21.00;20.00;;;;;;;;;;5058225;28;20500;-77
2024/01/22 12:17:23;;;;;;;21.80;20.67;;;;;;;;;;5052176;28;20538;-74
2024/01/22 12:19:53;;;;;;;24.90;23.17;;;;;;;;;;5062068;28;21254;-73
2024/01/22 12:22:23;;;;;;;24.53;23.17;;;;;;;;;;5050289;28;20454;-74
2024/01/22 12:25:03;;;;;;;26.63;25.33;;;;;;;;;;5050372;28;20475;-75
2024/01/22 12:27:30;;;;;;;22.03;20.23;;;;;;;;;;5049404;28;20432;-75
2024/01/22 12:30:00;;;;;;;17.37;16.10;;;;;;;;;;5052292;28;20532;-76
2024/01/22 12:32:28;;;;;;;26.33;15.40;;;;;;;;;;5060784;28;20429;-82
2024/01/22 12:34:58;;;;;;;15.03;14.17;;;;;;;;;;5057357;28;20502;-81
2024/01/22 12:37:29;;;;;;;13.97;13.27;;;;;;;;;;5066450;28;20443;-82
2024/01/22 12:40:05;;;;;;;14.70;13.90;;;;;;;;;;5064613;28;20539;-82
2024/01/22 12:42:32;;;;;;;14.10;13.30;;;;;;;;;;5065358;28;20450;-81
2024/01/22 12:44:59;;;;;;;14.27;13.43;;;;;;;;;;5056505;28;20475;-81
2024/01/22 12:47:26;;;;;;;14.33;13.63;;;;;;;;;;5064000;28;20473;-81
2024/01/22 12:49:53;;;;;;;15.10;14.00;;;;;;;;;;5064666;28;20443;-81
2024/01/22 12:52:21;;;;;;;14.67;13.77;;;;;;;;;;5072333;28;20779;-80
2024/01/22 12:54:50;;;;;;;14.30;13.30;;;;;;;;;;5060612;28;20583;-79
2024/01/22 12:57:17;;;;;;;15.30;14.30;;;;;;;;;;5066063;28;20501;-79
2024/01/22 12:59:46;;;;;;;17.60;15.80;;;;;;;;;;5050663;28;20482;-78
2024/01/22 13:02:13;;;;;;;16.77;15.70;;;;;;;;;;5050951;28;20450;-78
2024/01/22 13:04:40;;;;;;;18.87;17.10;;;;;;;;;;5062503;28;20477;-82
2024/01/22 13:07:07;;;;;;;16.77;15.80;;;;;;;;;;5065982;28;20889;-84
2024/01/22 13:09:34;;;;;;;19.10;17.40;;;;;;;;;;5067812;28;20612;-83
2024/01/22 13:12:04;;;;;;;18.93;17.33;;;;;;;;;;5070725;28;20507;-83
2024/01/22 13:14:31;;;;;;;20.10;18.90;;;;;;;;;;5065973;28;20544;-82
2024/01/22 13:17:01;;;;;;;20.30;18.77;;;;;;;;;;5064289;28;20580;-83
2024/01/22 13:19:28;;;;;;;20.73;19.30;;;;;;;;;;5065430;28;20486;-85
2024/01/22 13:21:55;;;;;;;21.43;19.83;;;;;;;;;;5076588;28;20462;-84
2024/01/22 13:24:22;;;;;;;23.03;21.27;;;;;;;;;;5072229;28;20993;-84
2024/01/22 13:26:49;;;;;;;21.80;20.40;;;;;;;;;;5070148;28;20476;-83
2024/01/22 13:29:17;;;;;;;23.30;21.40;;;;;;;;;;5073258;28;20464;-84
2024/01/22 13:31:45;;;;;;;22.07;20.37;;;;;;;;;;5067162;28;20456;-82
2024/01/22 13:34:12;;;;;;;22.27;20.70;;;;;;;;;;5070110;28;20489;-80
2024/01/22 13:36:39;;;;;;;20.87;19.60;;;;;;;;;;5069445;28;20512;-81
2024/01/22 13:39:07;;;;;;;21.40;19.77;;;;;;;;;;5059921;28;20441;-80
2024/01/22 13:41:34;;;;;;;22.07;19.97;;;;;;;;;;5065897;28;20444;-81
2024/01/22 13:44:01;;;;;;;20.40;18.83;;;;;;;;;;5072708;28;20500;-80
2024/01/22 13:46:29;;;;;;;21.60;19.87;;;;;;;;;;5055482;28;20454;-80
2024/01/22 13:48:56;;;;;;;21.67;19.50;;;;;;;;;;5054843;28;20470;-80
2024/01/22 13:51:24;;;;;;;18.20;17.00;;;;;;;;;;5055110;28;20531;-79
2024/01/22 13:53:51;;;;;;;27.00;20.70;;;;;;;;;;5056306;28;20472;-80
2024/01/22 13:56:19;;;;;;;21.07;19.10;;;;;;;;;;5056343;28;20753;-81
2024/01/22 13:58:46;;;;;;;22.50;20.33;;;;;;;;;;5055976;28;20478;-80
2024/01/22 14:01:13;;;;;;;42.80;19.10;;;;;;;;;;5056171;28;20451;-81
2024/01/22 14:03:42;;;;;;;21.90;19.77;;;;;;;;;;5065029;28;20442;-80
2024/01/22 14:06:09;;;;;;;22.60;20.50;;;;;;;;;;5075738;28;20454;-81
2024/01/22 14:08:36;;;;;;;24.13;21.73;;;;;;;;;;5076404;28;22251;-81
2024/01/22 14:11:04;;;;;;;24.80;21.00;;;;;;;;;;5076201;28;20404;-80
2024/01/22 14:13:31;;;;;;;22.50;20.40;;;;;;;;;;5061804;28;20492;-80
2024/01/22 14:15:58;;;;;;;25.13;22.50;;;;;;;;;;5060771;28;20540;-81
2024/01/22 14:18:26;;;;;;;23.43;21.43;;;;;;;;;;5076204;28;20929;-79
2024/01/22 14:20:55;;;;;;;29.97;22.03;;;;;;;;;;5076313;28;20455;-80
2024/01/22 14:23:22;;;;;;;22.70;20.57;;;;;;;;;;5069026;28;20453;-80